createdAt,value
2023-11-09T00:00:49.713Z,100.00
2023-11-09T00:03:17.178Z,100.00
2023-11-09T00:05:44.626Z,100.00
2023-11-09T00:08:12.027Z,100.00
2023-11-09T00:10:39.012Z,100.00
2023-11-09T00:13:05.942Z,100.00
2023-11-09T00:15:32.892Z,100.00
2023-11-09T00:18:00.444Z,100.00
2023-11-09T00:20:28.540Z,100.00
2023-11-09T00:22:55.508Z,100.00
2023-11-09T00:25:22.556Z,100.00
2023-11-09T00:27:49.597Z,100.00
2023-11-09T00:30:16.608Z,100.00
2023-11-09T00:32:43.680Z,100.00
2023-11-09T00:35:10.879Z,100.00
2023-11-09T00:37:40.560Z,100.00
2023-11-09T00:40:12.162Z,100.00
2023-11-09T00:42:40.110Z,100.00
2023-11-09T00:45:08.288Z,100.00
2023-11-09T00:47:35.733Z,100.00
2023-11-09T00:50:02.813Z,100.00
2023-11-09T00:52:29.973Z,100.00
2023-11-09T00:54:57.090Z,100.00
2023-11-09T00:57:26.833Z,100.00
2023-11-09T00:59:53.657Z,100.00
2023-11-09T01:02:20.616Z,100.00
2023-11-09T01:04:47.587Z,100.00
2023-11-09T01:07:15.072Z,100.00
2023-11-09T01:09:41.995Z,100.00
2023-11-09T01:12:09.396Z,100.00
2023-11-09T01:14:36.501Z,100.00
2023-11-09T01:17:03.948Z,100.00
2023-11-09T01:19:31.911Z,100.00
2023-11-09T01:21:59.258Z,100.00
2023-11-09T01:24:26.168Z,100.00
2023-11-09T01:26:53.187Z,100.00
2023-11-09T01:29:23.216Z,100.00
2023-11-09T01:31:50.794Z,100.00
2023-11-09T01:34:18.083Z,100.00
2023-11-09T01:36:45.112Z,100.00
2023-11-09T01:39:13.552Z,100.00
2023-11-09T01:41:43.621Z,100.00
2023-11-09T01:44:11.254Z,100.00
2023-11-09T01:46:41.706Z,100.00
2023-11-09T01:49:10.786Z,100.00
2023-11-09T01:51:39.557Z,100.00
2023-11-09T01:54:10.480Z,100.00
2023-11-09T01:56:37.519Z,100.00
2023-11-09T01:59:07.741Z,100.00
2023-11-09T02:01:37.294Z,100.00
2023-11-09T02:04:04.876Z,100.00
2023-11-09T02:06:33.234Z,100.00
2023-11-09T02:09:00.288Z,100.00
2023-11-09T02:11:27.322Z,100.00
2023-11-09T02:13:54.321Z,100.00
2023-11-09T02:16:21.812Z,100.00
2023-11-09T02:18:49.070Z,100.00
2023-11-09T02:21:18.910Z,100.00
2023-11-09T02:23:49.398Z,100.00
2023-11-09T02:26:17.531Z,100.00
2023-11-09T02:28:50.455Z,100.00
2023-11-09T02:31:18.417Z,100.00
2023-11-09T02:33:45.382Z,100.00
2023-11-09T02:36:12.826Z,100.00
2023-11-09T02:38:39.801Z,100.00
2023-11-09T02:41:09.509Z,100.00
2023-11-09T02:43:42.005Z,100.00
2023-11-09T02:46:11.912Z,100.00
2023-11-09T02:48:39.819Z,100.00
2023-11-09T02:51:07.820Z,100.00
2023-11-09T02:53:34.932Z,100.00
2023-11-09T02:56:01.952Z,100.00
2023-11-09T02:58:30.442Z,100.00
2023-11-09T03:00:59.221Z,100.00
2023-11-09T03:03:26.281Z,100.00
2023-11-09T03:05:55.100Z,100.00
2023-11-09T03:08:22.218Z,100.00
2023-11-09T03:10:49.523Z,100.00
2023-11-09T03:13:16.599Z,100.00
2023-11-09T03:15:45.771Z,100.00
2023-11-09T03:18:12.938Z,100.00
2023-11-09T03:20:42.560Z,100.00
2023-11-09T03:23:09.890Z,100.00
2023-11-09T03:25:36.844Z,100.00
2023-11-09T03:28:04.227Z,100.00
2023-11-09T03:30:35.270Z,100.00
2023-11-09T03:33:02.599Z,100.00
2023-11-09T03:35:29.482Z,100.00
2023-11-09T03:37:56.373Z,100.00
2023-11-09T03:40:23.238Z,100.00
2023-11-09T03:42:50.234Z,100.00
2023-11-09T03:45:17.273Z,100.00
2023-11-09T03:47:44.434Z,100.00
2023-11-09T03:50:15.159Z,100.00
2023-11-09T03:52:42.106Z,100.00
2023-11-09T03:55:11.910Z,100.00
2023-11-09T03:57:39.657Z,100.00
2023-11-09T04:00:09.659Z,100.00
2023-11-09T04:02:40.664Z,100.00
2023-11-09T04:05:11.063Z,100.00
2023-11-09T04:07:45.924Z,100.00
2023-11-09T04:10:15.490Z,100.00
2023-11-09T04:12:44.640Z,100.00
2023-11-09T04:15:12.159Z,100.00
2023-11-09T04:17:39.137Z,100.00
2023-11-09T04:20:08.669Z,100.00
2023-11-09T04:22:36.547Z,100.00
2023-11-09T04:25:03.843Z,100.00
2023-11-09T04:27:30.914Z,100.00
2023-11-09T04:29:59.425Z,100.00
2023-11-09T04:32:27.309Z,100.00
2023-11-09T04:34:54.608Z,100.00
2023-11-09T04:37:23.332Z,100.00
2023-11-09T04:39:53.318Z,100.00
2023-11-09T04:42:20.996Z,100.00
2023-11-09T04:44:48.306Z,100.00
2023-11-09T04:47:16.053Z,100.00
2023-11-09T04:49:51.225Z,100.00
2023-11-09T04:52:20.664Z,100.00
2023-11-09T04:54:58.016Z,100.00
2023-11-09T04:57:49.379Z,100.00
2023-11-09T05:00:35.118Z,100.00
2023-11-09T05:03:20.960Z,100.00
2023-11-09T05:06:10.604Z,100.00
2023-11-09T05:08:37.539Z,100.00
2023-11-09T05:11:04.889Z,100.00
2023-11-09T05:13:32.206Z,100.00
2023-11-09T05:15:59.403Z,100.00
2023-11-09T05:18:27.727Z,100.00
2023-11-09T05:20:54.682Z,100.00
2023-11-09T05:23:21.640Z,100.00
2023-11-09T05:25:48.463Z,100.00
2023-11-09T05:28:15.386Z,100.00
2023-11-09T05:30:42.489Z,100.00
2023-11-09T05:33:09.568Z,100.00
2023-11-09T05:35:36.468Z,100.00
2023-11-09T05:38:05.013Z,100.00
2023-11-09T05:40:32.055Z,100.00
2023-11-09T05:43:00.656Z,100.00
2023-11-09T05:45:27.625Z,100.00
2023-11-09T05:47:58.190Z,100.00
2023-11-09T05:50:25.165Z,100.00
2023-11-09T05:52:52.136Z,100.00
2023-11-09T05:55:19.117Z,100.00
2023-11-09T05:57:46.167Z,100.00
2023-11-09T06:00:15.053Z,100.00
2023-11-09T06:02:42.128Z,100.00
2023-11-09T06:05:09.117Z,100.00
2023-11-09T06:07:36.632Z,100.00
2023-11-09T06:10:04.830Z,100.00
2023-11-09T06:12:32.046Z,100.00
2023-11-09T06:14:58.851Z,100.00
2023-11-09T06:17:25.873Z,100.00
2023-11-09T06:19:52.802Z,100.00
2023-11-09T06:22:19.882Z,100.00
2023-11-09T06:24:46.774Z,100.00
2023-11-09T06:27:18.442Z,100.00
2023-11-09T06:29:45.469Z,100.00
2023-11-09T06:32:12.614Z,100.00
2023-11-09T06:34:40.912Z,100.00
2023-11-09T06:37:07.901Z,100.00
2023-11-09T06:39:34.854Z,100.00
2023-11-09T06:42:01.844Z,100.00
2023-11-09T06:44:28.831Z,100.00
2023-11-09T06:46:55.738Z,100.00
2023-11-09T06:49:22.829Z,100.00
2023-11-09T06:51:49.732Z,100.00
2023-11-09T06:54:17.121Z,100.00
2023-11-09T06:56:44.111Z,100.00
2023-11-09T06:59:11.717Z,100.00
2023-11-09T07:01:38.643Z,100.00
2023-11-09T07:04:06.005Z,100.00
2023-11-09T07:06:33.120Z,100.00
2023-11-09T07:09:00.167Z,100.00
2023-11-09T07:11:27.150Z,100.00
2023-11-09T07:13:54.184Z,100.00
2023-11-09T07:16:21.058Z,100.00
2023-11-09T07:18:48.054Z,100.00
2023-11-09T07:21:14.978Z,100.00
2023-11-09T07:23:42.991Z,100.00
2023-11-09T07:26:10.587Z,99.00
2023-11-09T07:28:37.507Z,97.78
2023-11-09T07:31:04.641Z,98.82
2023-11-09T07:33:32.765Z,99.34
2023-11-09T07:36:00.537Z,99.44
2023-11-09T07:38:30.642Z,97.37
2023-11-09T07:40:57.599Z,97.66
2023-11-09T07:43:26.799Z,95.84
2023-11-09T07:45:54.342Z,95.88
2023-11-09T07:48:22.780Z,96.44
2023-11-09T07:50:51.314Z,95.60
2023-11-09T07:53:18.267Z,96.56
2023-11-09T07:55:45.840Z,95.92
2023-11-09T07:58:14.378Z,93.57
2023-11-09T08:00:41.880Z,92.89
2023-11-09T08:03:10.575Z,92.58
2023-11-09T08:05:42.631Z,92.03
2023-11-09T08:08:12.734Z,93.84
2023-11-09T08:10:39.867Z,91.55
2023-11-09T08:13:07.202Z,92.25
2023-11-09T08:15:36.460Z,90.86
2023-11-09T08:18:06.670Z,91.40
2023-11-09T08:20:33.802Z,90.91
2023-11-09T08:23:01.227Z,91.83
2023-11-09T08:25:28.911Z,92.45
2023-11-09T08:27:55.984Z,91.65
2023-11-09T08:30:28.283Z,92.48
2023-11-09T08:32:56.971Z,92.20
2023-11-09T08:35:25.922Z,92.94
2023-11-09T08:37:58.948Z,90.97
2023-11-09T08:40:29.752Z,94.37
2023-11-09T08:42:59.035Z,93.67
2023-11-09T08:45:29.410Z,91.82
2023-11-09T08:47:57.032Z,88.00
2023-11-09T08:50:25.948Z,87.88
2023-11-09T08:52:55.572Z,86.83
2023-11-09T08:55:24.376Z,89.96
2023-11-09T08:57:52.021Z,89.72
2023-11-09T09:00:19.613Z,88.79
2023-11-09T09:02:50.637Z,89.72
2023-11-09T09:05:26.638Z,89.86
2023-11-09T09:07:58.246Z,90.43
2023-11-09T09:10:28.796Z,91.37
2023-11-09T09:13:02.761Z,93.03
2023-11-09T09:15:30.352Z,91.56
2023-11-09T09:17:58.861Z,85.96
2023-11-09T09:20:26.125Z,85.86
2023-11-09T09:22:56.896Z,86.82
2023-11-09T09:25:26.558Z,84.92
2023-11-09T09:27:54.032Z,85.18
2023-11-09T09:30:26.352Z,83.53
2023-11-09T09:32:54.751Z,81.66
2023-11-09T09:35:23.391Z,80.68
2023-11-09T09:37:51.994Z,79.91
2023-11-09T09:40:30.844Z,77.60
2023-11-09T09:43:00.288Z,76.50
2023-11-09T09:45:31.871Z,74.42
2023-11-09T09:48:02.450Z,72.15
2023-11-09T09:50:35.102Z,74.76
2023-11-09T09:53:02.831Z,74.80
2023-11-09T09:55:30.174Z,72.24
2023-11-09T09:57:58.859Z,70.97
2023-11-09T10:00:29.172Z,68.52
2023-11-09T10:02:56.120Z,68.35
2023-11-09T10:05:29.269Z,69.14
2023-11-09T10:08:14.724Z,69.10
2023-11-09T10:10:51.249Z,70.46
2023-11-09T10:13:24.606Z,72.00
2023-11-09T10:15:59.820Z,74.24
2023-11-09T10:18:31.540Z,75.92
2023-11-09T10:21:05.077Z,73.43
2023-11-09T10:23:32.335Z,75.58
2023-11-09T10:26:05.258Z,75.67
2023-11-09T10:28:35.160Z,75.12
2023-11-09T10:31:02.241Z,75.41
2023-11-09T10:33:31.935Z,74.98
2023-11-09T10:36:00.287Z,75.51
2023-11-09T10:38:27.277Z,75.96
2023-11-09T10:41:14.936Z,76.39
2023-11-09T10:43:44.069Z,78.78
2023-11-09T10:46:17.527Z,79.93
2023-11-09T10:48:46.021Z,80.48
2023-11-09T10:51:14.633Z,79.59
2023-11-09T10:53:45.047Z,78.62
2023-11-09T10:56:15.662Z,79.39
2023-11-09T10:58:46.372Z,76.93
2023-11-09T11:01:23.477Z,75.84
2023-11-09T11:03:55.840Z,77.09
2023-11-09T11:06:31.403Z,74.41
2023-11-09T11:09:09.681Z,74.26
2023-11-09T11:11:41.922Z,76.14
2023-11-09T11:14:12.897Z,76.17
2023-11-09T11:17:02.245Z,76.48
2023-11-09T11:20:02.099Z,76.16
2023-11-09T11:22:40.665Z,75.13
2023-11-09T11:25:17.397Z,76.05
2023-11-09T11:28:01.649Z,76.21
2023-11-09T11:30:41.086Z,76.01
2023-11-09T11:33:14.510Z,77.03
2023-11-09T11:35:49.721Z,77.19
2023-11-09T11:38:16.959Z,77.78
2023-11-09T11:40:45.109Z,78.41
2023-11-09T11:43:12.926Z,78.42
2023-11-09T11:45:41.455Z,78.66
2023-11-09T11:48:20.756Z,78.92
2023-11-09T11:50:51.623Z,77.93
2023-11-09T11:53:37.294Z,79.03
2023-11-09T11:56:11.661Z,78.68
2023-11-09T11:59:02.289Z,78.98
2023-11-09T12:01:33.569Z,79.37
2023-11-09T12:04:08.185Z,80.54
2023-11-09T12:06:39.565Z,80.18
2023-11-09T12:09:12.225Z,78.45
2023-11-09T12:11:51.402Z,78.51
2023-11-09T12:14:22.126Z,78.72
2023-11-09T12:16:49.231Z,79.30
2023-11-09T12:19:18.020Z,79.27
2023-11-09T12:21:48.817Z,78.73
2023-11-09T12:24:24.526Z,78.99
2023-11-09T12:27:10.120Z,78.69
2023-11-09T12:29:43.878Z,78.40
2023-11-09T12:32:13.021Z,78.29
2023-11-09T12:34:44.298Z,78.08
2023-11-09T12:37:16.750Z,79.06
2023-11-09T12:39:44.847Z,79.75
2023-11-09T12:42:13.478Z,79.29
2023-11-09T12:44:44.384Z,79.35
2023-11-09T12:47:13.144Z,78.86
2023-11-09T12:49:46.910Z,78.47
2023-11-09T12:52:17.145Z,78.82
2023-11-09T12:54:46.347Z,79.62
2023-11-09T12:57:18.268Z,80.12
2023-11-09T12:59:47.371Z,79.86
2023-11-09T13:02:20.361Z,79.63
2023-11-09T13:04:50.574Z,80.12
2023-11-09T13:07:18.152Z,80.88
2023-11-09T13:09:47.882Z,80.64
2023-11-09T13:12:34.214Z,81.04
2023-11-09T13:15:24.448Z,81.67
2023-11-09T13:17:55.081Z,82.31
2023-11-09T13:20:30.953Z,82.53
2023-11-09T13:23:07.543Z,83.37
2023-11-09T13:25:41.092Z,84.40
2023-11-09T13:28:16.073Z,85.08
2023-11-09T13:30:51.174Z,85.67
2023-11-09T13:33:31.910Z,85.87
2023-11-09T13:36:11.565Z,86.28
2023-11-09T13:39:03.271Z,86.01
2023-11-09T13:41:42.636Z,85.27
2023-11-09T13:44:12.752Z,85.47
2023-11-09T13:46:42.604Z,85.36
2023-11-09T13:49:16.793Z,85.66
2023-11-09T13:52:02.926Z,85.61
2023-11-09T13:54:33.835Z,85.78
2023-11-09T13:57:00.742Z,85.53
2023-11-09T13:59:34.324Z,85.87
2023-11-09T14:02:01.799Z,85.44
2023-11-09T14:04:32.273Z,85.74
2023-11-09T14:07:00.144Z,85.93
2023-11-09T14:09:36.066Z,85.62
2023-11-09T14:12:10.490Z,85.65
2023-11-09T14:14:41.823Z,86.23
2023-11-09T14:17:17.668Z,86.44
2023-11-09T14:19:55.587Z,86.77
2023-11-09T14:22:24.158Z,87.19
2023-11-09T14:24:59.090Z,87.02
2023-11-09T14:27:29.558Z,87.64
2023-11-09T14:29:58.872Z,87.77
2023-11-09T14:32:27.691Z,88.70
2023-11-09T14:34:55.553Z,88.67
2023-11-09T14:37:23.869Z,88.87
2023-11-09T14:40:15.217Z,90.13
2023-11-09T14:42:42.496Z,91.29
2023-11-09T14:45:10.899Z,92.16
2023-11-09T14:47:43.491Z,92.77
2023-11-09T14:50:20.141Z,93.04
2023-11-09T14:52:51.166Z,93.80
2023-11-09T14:55:20.465Z,94.28
2023-11-09T14:57:48.984Z,95.14
2023-11-09T15:00:21.893Z,95.09
2023-11-09T15:02:49.388Z,95.78
2023-11-09T15:05:25.417Z,96.52
2023-11-09T15:07:54.208Z,96.57
2023-11-09T15:10:26.082Z,97.17
2023-11-09T15:12:54.356Z,97.28
2023-11-09T15:15:27.499Z,97.83
2023-11-09T15:18:00.416Z,97.73
2023-11-09T15:20:29.981Z,98.10
2023-11-09T15:22:58.063Z,98.28
2023-11-09T15:25:26.064Z,98.07
2023-11-09T15:27:53.651Z,97.80
2023-11-09T15:30:26.099Z,97.80
2023-11-09T15:32:53.776Z,96.41
2023-11-09T15:35:22.646Z,96.93
2023-11-09T15:37:55.289Z,96.70
2023-11-09T15:41:09.299Z,95.77
2023-11-09T15:43:11.980Z,95.80
2023-11-09T15:45:40.522Z,96.11
2023-11-09T15:48:09.339Z,96.49
2023-11-09T15:50:37.922Z,96.58
2023-11-09T15:53:06.904Z,96.38
2023-11-09T15:55:35.624Z,96.76
2023-11-09T15:58:08.192Z,96.80
2023-11-09T16:00:36.772Z,97.27
2023-11-09T16:03:04.082Z,97.76
2023-11-09T16:05:31.024Z,98.20
2023-11-09T16:08:06.189Z,98.37
2023-11-09T16:10:35.921Z,98.92
2023-11-09T16:13:03.188Z,99.49
2023-11-09T16:15:31.269Z,99.24
2023-11-09T16:17:59.465Z,99.30
2023-11-09T16:20:35.304Z,99.26
2023-11-09T16:23:08.562Z,99.79
2023-11-09T16:25:39.734Z,99.77
2023-11-09T16:28:08.478Z,99.95
2023-11-09T16:30:39.061Z,99.74
2023-11-09T16:33:10.137Z,99.85
2023-11-09T16:35:37.927Z,99.24
2023-11-09T16:38:05.888Z,98.73
2023-11-09T16:40:35.690Z,98.23
2023-11-09T16:43:02.962Z,97.54
2023-11-09T16:45:30.045Z,96.71
2023-11-09T16:47:57.105Z,96.38
2023-11-09T16:50:24.165Z,96.08
2023-11-09T16:52:51.918Z,95.51
2023-11-09T16:55:18.883Z,96.09
2023-11-09T16:57:46.689Z,95.79
2023-11-09T17:00:25.028Z,96.80
2023-11-09T17:02:52.833Z,97.58
2023-11-09T17:05:21.948Z,97.30
2023-11-09T17:07:49.140Z,97.13
2023-11-09T17:10:16.304Z,97.69
2023-11-09T17:12:44.012Z,97.26
2023-11-09T17:15:13.166Z,97.27
2023-11-09T17:17:44.169Z,97.25
2023-11-09T17:20:13.494Z,97.51
2023-11-09T17:22:43.892Z,99.95
2023-11-09T17:25:11.318Z,100.00
2023-11-09T17:27:38.444Z,100.00
2023-11-09T17:30:11.070Z,100.00
2023-11-09T17:32:40.238Z,100.00
2023-11-09T17:35:08.822Z,100.00
2023-11-09T17:37:35.992Z,99.35
2023-11-09T17:40:04.770Z,99.38
2023-11-09T17:42:39.178Z,99.10
2023-11-09T17:45:07.992Z,99.05
2023-11-09T17:47:35.227Z,98.95
2023-11-09T17:50:02.411Z,98.83
2023-11-09T17:52:29.747Z,98.18
2023-11-09T17:54:56.779Z,98.79
2023-11-09T17:57:25.723Z,98.57
2023-11-09T17:59:52.793Z,98.00
2023-11-09T18:02:19.794Z,98.28
2023-11-09T18:04:46.809Z,98.70
2023-11-09T18:07:16.019Z,98.61
2023-11-09T18:09:44.787Z,97.85
2023-11-09T18:12:11.803Z,97.68
2023-11-09T18:14:44.874Z,98.02
2023-11-09T18:17:16.561Z,97.97
2023-11-09T18:19:43.658Z,99.30
2023-11-09T18:22:10.696Z,100.00
2023-11-09T18:24:38.438Z,100.00
2023-11-09T18:27:06.158Z,100.00
2023-11-09T18:29:33.994Z,100.00
2023-11-09T18:32:01.056Z,100.00
2023-11-09T18:34:29.772Z,100.00
2023-11-09T18:36:56.985Z,99.72
2023-11-09T18:39:24.061Z,99.67
2023-11-09T18:41:50.947Z,99.05
2023-11-09T18:44:20.167Z,99.73
2023-11-09T18:46:51.639Z,100.00
2023-11-09T18:51:49.046Z,98.74
2023-11-09T18:54:16.142Z,98.90
2023-11-09T18:56:43.235Z,98.70
2023-11-09T18:59:10.111Z,99.20
2023-11-09T19:01:37.154Z,99.81
2023-11-09T19:06:34.418Z,99.81
2023-11-09T19:09:01.378Z,99.49
2023-11-09T19:11:28.980Z,98.98
2023-11-09T19:13:56.380Z,98.26
2023-11-09T19:16:23.797Z,98.46
2023-11-09T19:18:51.406Z,97.80
2023-11-09T19:23:48.287Z,97.69
2023-11-09T19:26:15.398Z,97.30
2023-11-09T19:28:42.500Z,97.69
2023-11-09T19:31:10.014Z,98.23
2023-11-09T19:33:37.770Z,98.43
2023-11-09T19:36:06.946Z,98.69
2023-11-09T19:38:34.756Z,99.58
2023-11-09T19:41:03.083Z,99.66
2023-11-09T19:43:30.077Z,98.95
2023-11-09T19:45:57.290Z,99.14
2023-11-09T19:48:24.810Z,98.43
2023-11-09T19:50:51.874Z,98.74
2023-11-09T19:53:18.986Z,98.59
2023-11-09T19:55:46.070Z,98.55
2023-11-09T19:58:13.418Z,98.59
2023-11-09T20:00:40.455Z,98.99
2023-11-09T20:03:08.218Z,98.25
2023-11-09T20:05:36.539Z,97.99
2023-11-09T20:08:04.231Z,97.86
2023-11-09T20:10:31.725Z,97.39
2023-11-09T20:12:59.949Z,97.21
2023-11-09T20:15:29.070Z,96.92
2023-11-09T20:17:56.764Z,97.07
2023-11-09T20:20:24.062Z,97.76
2023-11-09T20:22:52.346Z,97.67
2023-11-09T20:25:19.463Z,98.05
2023-11-09T20:27:46.726Z,98.16
2023-11-09T20:30:16.912Z,97.90
2023-11-09T20:32:45.393Z,98.14
2023-11-09T20:35:13.274Z,98.00
2023-11-09T20:37:42.249Z,98.54
2023-11-09T20:40:10.484Z,98.88
2023-11-09T20:42:40.574Z,99.46
2023-11-09T20:45:09.971Z,99.62
2023-11-09T20:47:41.017Z,100.00
2023-11-09T20:50:15.487Z,99.97
2023-11-09T20:52:48.596Z,99.96
2023-11-09T20:55:20.000Z,99.55
2023-11-09T20:57:47.946Z,99.22
2023-11-09T21:00:16.082Z,98.95
2023-11-09T21:02:43.174Z,98.76
2023-11-09T21:05:10.376Z,98.86
2023-11-09T21:07:41.501Z,98.85
2023-11-09T21:10:13.102Z,98.30
2023-11-09T21:12:43.239Z,97.78
2023-11-09T21:15:12.241Z,97.97
2023-11-09T21:17:43.799Z,98.00
2023-11-09T21:20:13.305Z,98.09
2023-11-09T21:22:40.546Z,97.81
2023-11-09T21:25:08.221Z,98.21
2023-11-09T21:27:35.699Z,97.57
2023-11-09T21:30:03.132Z,97.87
2023-11-09T21:32:30.563Z,98.07
2023-11-09T21:34:57.881Z,98.30
2023-11-09T21:37:25.864Z,98.09
2023-11-09T21:39:52.823Z,98.28
2023-11-09T21:42:20.408Z,97.78
2023-11-09T21:44:49.822Z,97.64
2023-11-09T21:47:20.056Z,97.94
2023-11-09T21:49:48.539Z,98.03
2023-11-09T21:52:15.547Z,97.53
2023-11-09T21:54:42.919Z,97.58
2023-11-09T21:57:10.922Z,97.82
2023-11-09T21:59:37.896Z,98.01
2023-11-09T22:02:05.071Z,97.72
2023-11-09T22:04:32.275Z,98.34
2023-11-09T22:06:59.344Z,98.78
2023-11-09T22:09:26.655Z,98.21
2023-11-09T22:11:53.817Z,98.03
2023-11-09T22:14:20.825Z,98.03
2023-11-09T22:16:47.786Z,97.96
2023-11-09T22:19:14.701Z,98.07
2023-11-09T22:21:41.823Z,98.31
2023-11-09T22:24:11.705Z,98.09
2023-11-09T22:26:40.289Z,98.26
2023-11-09T22:29:07.771Z,97.97
2023-11-09T22:31:34.899Z,97.83
2023-11-09T22:34:02.412Z,98.25
2023-11-09T22:36:29.585Z,98.63
2023-11-09T22:38:56.588Z,98.76
2023-11-09T22:41:23.522Z,98.44
2023-11-09T22:43:50.707Z,98.04
2023-11-09T22:46:17.995Z,97.84
2023-11-09T22:48:46.154Z,97.86
2023-11-09T22:51:13.273Z,98.05
2023-11-09T22:53:40.303Z,97.86
2023-11-09T22:56:07.625Z,97.71
2023-11-09T22:58:34.652Z,97.29
2023-11-09T23:01:05.302Z,97.27
2023-11-09T23:03:33.532Z,97.83
2023-11-09T23:06:01.133Z,98.22
2023-11-09T23:08:28.255Z,98.39
2023-11-09T23:10:55.194Z,98.60
2023-11-09T23:13:22.133Z,98.55
2023-11-09T23:15:49.060Z,98.25
2023-11-09T23:18:17.201Z,98.35
2023-11-09T23:20:45.286Z,98.21
2023-11-09T23:23:13.329Z,97.99
2023-11-09T23:25:40.645Z,98.80
2023-11-09T23:28:07.674Z,98.92
2023-11-09T23:30:34.836Z,98.93
2023-11-09T23:33:02.290Z,98.90
2023-11-09T23:35:30.245Z,99.86
2023-11-09T23:37:57.615Z,100.00
2023-11-09T23:40:24.831Z,100.00
2023-11-09T23:42:52.073Z,100.00
2023-11-09T23:45:19.567Z,100.00
2023-11-09T23:47:47.346Z,100.00
2023-11-09T23:50:14.482Z,99.99
2023-11-09T23:52:42.176Z,99.03
2023-11-09T23:55:09.958Z,98.25
2023-11-09T23:57:37.735Z,97.80
